sensor_id;sensor_type;location;lat;lon;timestamp;pressure;altitude;pressure_sealevel;temperature;humidity
64200;BME280;50516;52.272;5.136;2022-09-27T00:01:31;99687.22;;;11.30;87.18
64200;BME280;50516;52.272;5.136;2022-09-27T00:03:56;99681.53;;;11.26;87.59
64200;BME280;50516;52.272;5.136;2022-09-27T00:06:26;99687.22;;;11.30;87.17
64200;BME280;50516;52.272;5.136;2022-09-27T00:08:52;99686.63;;;11.33;87.04
64200;BME280;50516;52.272;5.136;2022-09-27T00:13:56;99677.28;;;11.34;86.84
64200;BME280;50516;52.272;5.136;2022-09-27T00:16:23;99681.44;;;11.31;86.48
64200;BME280;50516;52.272;5.136;2022-09-27T00:18:49;99677.88;;;11.31;86.32
64200;BME280;50516;52.272;5.136;2022-09-27T00:21:15;99685.19;;;11.22;85.80
64200;BME280;50516;52.272;5.136;2022-09-27T00:23:40;99675.41;;;11.15;85.71
64200;BME280;50516;52.272;5.136;2022-09-27T00:26:07;99677.16;;;11.11;85.48
64200;BME280;50516;52.272;5.136;2022-09-27T00:28:33;99674.22;;;11.08;85.58
64200;BME280;50516;52.272;5.136;2022-09-27T00:30:59;99675.63;;;11.05;85.70
64200;BME280;50516;52.272;5.136;2022-09-27T00:33:26;99670.75;;;11.02;85.58
64200;BME280;50516;52.272;5.136;2022-09-27T00:35:52;99671.84;;;11.01;85.21
64200;BME280;50516;52.272;5.136;2022-09-27T00:38:17;99668.59;;;10.99;85.07
64200;BME280;50516;52.272;5.136;2022-09-27T00:40:43;99681.53;;;10.99;84.79
64200;BME280;50516;52.272;5.136;2022-09-27T00:43:16;99679.59;;;10.99;84.66
64200;BME280;50516;52.272;5.136;2022-09-27T00:45:43;99681.03;;;10.96;84.76
64200;BME280;50516;52.272;5.136;2022-09-27T00:48:12;99684.56;;;10.97;84.96
64200;BME280;50516;52.272;5.136;2022-09-27T00:50:41;99685.97;;;10.94;84.78
64200;BME280;50516;52.272;5.136;2022-09-27T00:53:32;99684.16;;;10.90;84.64
64200;BME280;50516;52.272;5.136;2022-09-27T00:56:01;99689.13;;;10.88;84.63
64200;BME280;50516;52.272;5.136;2022-09-27T00:58:33;99676.00;;;10.85;84.42
64200;BME280;50516;52.272;5.136;2022-09-27T01:01:02;99695.44;;;10.88;84.30
64200;BME280;50516;52.272;5.136;2022-09-27T01:03:48;99684.53;;;10.83;84.66
64200;BME280;50516;52.272;5.136;2022-09-27T01:06:17;99689.84;;;10.80;84.63
64200;BME280;50516;52.272;5.136;2022-09-27T01:08:44;99689.03;;;10.79;84.72
64200;BME280;50516;52.272;5.136;2022-09-27T01:14:23;99708.75;;;10.81;84.61
64200;BME280;50516;52.272;5.136;2022-09-27T01:31:26;99707.66;;;10.82;84.82
64200;BME280;50516;52.272;5.136;2022-09-27T01:34:03;99698.06;;;10.80;85.41
64200;BME280;50516;52.272;5.136;2022-09-27T01:45:35;99695.66;;;10.92;84.70
64200;BME280;50516;52.272;5.136;2022-09-27T01:48:00;99700.13;;;10.88;85.00
64200;BME280;50516;52.272;5.136;2022-09-27T01:50:34;99701.75;;;10.89;84.69
64200;BME280;50516;52.272;5.136;2022-09-27T01:55:36;99695.22;;;10.85;84.49
64200;BME280;50516;52.272;5.136;2022-09-27T01:58:19;99694.63;;;10.88;84.55
64200;BME280;50516;52.272;5.136;2022-09-27T02:00:48;99702.97;;;10.83;84.26
64200;BME280;50516;52.272;5.136;2022-09-27T02:03:26;99696.97;;;10.81;84.37
64200;BME280;50516;52.272;5.136;2022-09-27T02:05:56;99704.06;;;10.82;84.49
64200;BME280;50516;52.272;5.136;2022-09-27T02:08:36;99689.84;;;10.80;84.43
64200;BME280;50516;52.272;5.136;2022-09-27T02:11:12;99689.22;;;10.83;84.76
64200;BME280;50516;52.272;5.136;2022-09-27T02:19:00;99687.28;;;10.83;83.81
64200;BME280;50516;52.272;5.136;2022-09-27T02:21:32;99686.47;;;10.83;84.13
64200;BME280;50516;52.272;5.136;2022-09-27T02:24:03;99695.91;;;10.76;84.00
64200;BME280;50516;52.272;5.136;2022-09-27T02:26:37;99693.47;;;10.75;83.71
64200;BME280;50516;52.272;5.136;2022-09-27T02:29:09;99691.56;;;10.75;83.15
64200;BME280;50516;52.272;5.136;2022-09-27T02:31:35;99692.06;;;10.77;83.19
64200;BME280;50516;52.272;5.136;2022-09-27T02:34:07;99696.97;;;10.81;83.33
64200;BME280;50516;52.272;5.136;2022-09-27T02:36:35;99688.81;;;10.75;83.12
64200;BME280;50516;52.272;5.136;2022-09-27T02:39:01;99684.13;;;10.76;83.07
64200;BME280;50516;52.272;5.136;2022-09-27T02:41:27;99684.00;;;10.67;83.34
64200;BME280;50516;52.272;5.136;2022-09-27T02:43:58;99684.84;;;10.68;83.63
64200;BME280;50516;52.272;5.136;2022-09-27T02:54:43;99682.28;;;10.71;84.19
64200;BME280;50516;52.272;5.136;2022-09-27T02:57:26;99683.34;;;10.75;84.08
64200;BME280;50516;52.272;5.136;2022-09-27T03:02:53;99674.56;;;10.73;84.53
64200;BME280;50516;52.272;5.136;2022-09-27T03:05:28;99677.84;;;10.75;84.50
64200;BME280;50516;52.272;5.136;2022-09-27T03:07:55;99689.31;;;10.77;84.40
64200;BME280;50516;52.272;5.136;2022-09-27T03:10:24;99682.78;;;10.73;84.44
64200;BME280;50516;52.272;5.136;2022-09-27T03:12:50;99683.84;;;10.77;84.44
64200;BME280;50516;52.272;5.136;2022-09-27T03:15:16;99672.75;;;10.83;83.93
64200;BME280;50516;52.272;5.136;2022-09-27T03:17:42;99679.78;;;10.89;83.84
64200;BME280;50516;52.272;5.136;2022-09-27T03:20:07;99684.88;;;10.95;83.57
64200;BME280;50516;52.272;5.136;2022-09-27T03:22:33;99683.78;;;10.96;83.80
64200;BME280;50516;52.272;5.136;2022-09-27T03:24:58;99684.88;;;10.95;83.90
64200;BME280;50516;52.272;5.136;2022-09-27T03:27:24;99684.69;;;10.92;84.44
64200;BME280;50516;52.272;5.136;2022-09-27T03:29:49;99683.34;;;10.89;84.23
64200;BME280;50516;52.272;5.136;2022-09-27T03:32:15;99687.00;;;10.85;84.28
64200;BME280;50516;52.272;5.136;2022-09-27T03:34:40;99684.66;;;10.78;84.54
64200;BME280;50516;52.272;5.136;2022-09-27T03:37:05;99688.50;;;10.77;84.49
64200;BME280;50516;52.272;5.136;2022-09-27T03:39:31;99687.78;;;10.71;84.37
64200;BME280;50516;52.272;5.136;2022-09-27T03:41:57;99692.03;;;10.64;84.52
64200;BME280;50516;52.272;5.136;2022-09-27T03:44:22;99697.72;;;10.67;84.41
64200;BME280;50516;52.272;5.136;2022-09-27T03:46:48;99695.59;;;10.64;84.23
64200;BME280;50516;52.272;5.136;2022-09-27T03:49:13;99700.06;;;10.60;84.07
64200;BME280;50516;52.272;5.136;2022-09-27T03:51:38;99694.06;;;10.58;83.83
64200;BME280;50516;52.272;5.136;2022-09-27T03:54:04;99691.47;;;10.48;84.08
64200;BME280;50516;52.272;5.136;2022-09-27T03:56:29;99694.81;;;10.45;84.40
64200;BME280;50516;52.272;5.136;2022-09-27T03:58:54;99690.97;;;10.46;84.07
64200;BME280;50516;52.272;5.136;2022-09-27T04:01:20;99695.94;;;10.44;84.35
64200;BME280;50516;52.272;5.136;2022-09-27T04:03:45;99698.69;;;10.44;84.00
64200;BME280;50516;52.272;5.136;2022-09-27T04:06:10;99682.22;;;10.44;84.42
64200;BME280;50516;52.272;5.136;2022-09-27T04:08:36;99692.06;;;10.45;84.18
64200;BME280;50516;52.272;5.136;2022-09-27T04:11:02;99695.72;;;10.40;84.27
64200;BME280;50516;52.272;5.136;2022-09-27T04:13:28;99694.81;;;10.45;84.42
64200;BME280;50516;52.272;5.136;2022-09-27T04:15:53;99694.00;;;10.44;83.97
64200;BME280;50516;52.272;5.136;2022-09-27T04:18:18;99698.69;;;10.44;83.74
64200;BME280;50516;52.272;5.136;2022-09-27T04:20:44;99693.00;;;10.40;83.54
64200;BME280;50516;52.272;5.136;2022-09-27T04:23:09;99703.50;;;10.33;83.53
64200;BME280;50516;52.272;5.136;2022-09-27T04:25:35;99693.56;;;10.18;84.22
64200;BME280;50516;52.272;5.136;2022-09-27T04:28:00;99695.50;;;10.17;83.90
64200;BME280;50516;52.272;5.136;2022-09-27T04:30:27;99689.78;;;10.14;84.03
64200;BME280;50516;52.272;5.136;2022-09-27T04:32:53;99701.22;;;10.21;83.82
64200;BME280;50516;52.272;5.136;2022-09-27T04:35:18;99702.81;;;10.22;83.59
64200;BME280;50516;52.272;5.136;2022-09-27T04:38:04;99697.91;;;10.19;83.84
64200;BME280;50516;52.272;5.136;2022-09-27T04:40:33;99706.91;;;10.24;83.73
64200;BME280;50516;52.272;5.136;2022-09-27T04:42:59;99711.00;;;10.27;83.43
64200;BME280;50516;52.272;5.136;2022-09-27T04:45:25;99698.84;;;10.14;83.85
64200;BME280;50516;52.272;5.136;2022-09-27T04:47:50;99699.47;;;10.25;84.08
64200;BME280;50516;52.272;5.136;2022-09-27T04:50:17;99687.69;;;10.24;83.81
64200;BME280;50516;52.272;5.136;2022-09-27T04:52:43;99683.69;;;10.17;84.64
64200;BME280;50516;52.272;5.136;2022-09-27T04:55:09;99688.00;;;10.23;84.45
64200;BME280;50516;52.272;5.136;2022-09-27T04:57:35;99689.03;;;10.27;84.24
64200;BME280;50516;52.272;5.136;2022-09-27T05:00:02;99695.63;;;10.26;84.15
64200;BME280;50516;52.272;5.136;2022-09-27T05:02:28;99692.38;;;10.24;84.36
64200;BME280;50516;52.272;5.136;2022-09-27T05:04:54;99695.13;;;10.24;84.56
64200;BME280;50516;52.272;5.136;2022-09-27T05:07:26;99696.22;;;10.23;84.98
64200;BME280;50516;52.272;5.136;2022-09-27T05:09:52;99696.22;;;10.23;84.73
64200;BME280;50516;52.272;5.136;2022-09-27T05:12:18;99691.03;;;10.21;84.02
64200;BME280;50516;52.272;5.136;2022-09-27T05:14:44;99702.38;;;10.15;84.44
64200;BME280;50516;52.272;5.136;2022-09-27T05:17:09;99697.13;;;10.18;84.26
64200;BME280;50516;52.272;5.136;2022-09-27T05:19:35;99702.81;;;10.22;83.96
64200;BME280;50516;52.272;5.136;2022-09-27T05:22:00;99709.34;;;10.26;83.87
64200;BME280;50516;52.272;5.136;2022-09-27T05:24:26;99707.72;;;10.25;83.85
64200;BME280;50516;52.272;5.136;2022-09-27T05:26:55;99701.81;;;10.18;84.18
64200;BME280;50516;52.272;5.136;2022-09-27T05:29:20;99698.84;;;10.14;84.47
64200;BME280;50516;52.272;5.136;2022-09-27T05:31:46;99705.44;;;10.13;84.60
64200;BME280;50516;52.272;5.136;2022-09-27T05:34:11;99692.22;;;10.15;84.42
64200;BME280;50516;52.272;5.136;2022-09-27T05:36:37;99708.31;;;10.22;84.38
64200;BME280;50516;52.272;5.136;2022-09-27T05:39:03;99706.31;;;10.28;83.92
64200;BME280;50516;52.272;5.136;2022-09-27T05:41:28;99710.25;;;10.40;83.49
64200;BME280;50516;52.272;5.136;2022-09-27T05:43:54;99709.19;;;10.55;82.92
64200;BME280;50516;52.272;5.136;2022-09-27T05:46:19;99717.34;;;10.60;83.07
64200;BME280;50516;52.272;5.136;2022-09-27T05:48:45;99716.63;;;10.55;83.36
64200;BME280;50516;52.272;5.136;2022-09-27T05:51:10;99717.81;;;10.49;84.11
64200;BME280;50516;52.272;5.136;2022-09-27T05:53:35;99729.59;;;10.49;83.98
64200;BME280;50516;52.272;5.136;2022-09-27T05:56:04;99728.88;;;10.44;84.98
64200;BME280;50516;52.272;5.136;2022-09-27T05:58:29;99737.22;;;10.52;84.92
64200;BME280;50516;52.272;5.136;2022-09-27T06:00:55;99732.56;;;10.53;85.17
64200;BME280;50516;52.272;5.136;2022-09-27T06:03:20;99734.09;;;10.59;84.80
64200;BME280;50516;52.272;5.136;2022-09-27T06:05:46;99739.19;;;10.66;84.71
64200;BME280;50516;52.272;5.136;2022-09-27T06:08:12;99740.63;;;10.63;85.25
64200;BME280;50516;52.272;5.136;2022-09-27T06:10:39;99723.19;;;10.73;84.76
64200;BME280;50516;52.272;5.136;2022-09-27T06:13:10;99717.00;;;10.81;84.61
64200;BME280;50516;52.272;5.136;2022-09-27T06:15:37;99718.75;;;10.91;84.27
64200;BME280;50516;52.272;5.136;2022-09-27T06:18:08;99725.78;;;10.97;84.46
64200;BME280;50516;52.272;5.136;2022-09-27T06:20:34;99728.31;;;11.07;83.90
64200;BME280;50516;52.272;5.136;2022-09-27T06:25:29;99745.78;;;10.84;85.96
64200;BME280;50516;52.272;5.136;2022-09-27T06:27:55;99747.41;;;10.85;85.67
64200;BME280;50516;52.272;5.136;2022-09-27T06:30:20;99751.41;;;10.92;85.53
64200;BME280;50516;52.272;5.136;2022-09-27T06:32:45;99750.34;;;10.88;85.97
64200;BME280;50516;52.272;5.136;2022-09-27T06:35:11;99748.84;;;10.82;86.43
64200;BME280;50516;52.272;5.136;2022-09-27T06:37:36;99751.88;;;10.81;86.71
64200;BME280;50516;52.272;5.136;2022-09-27T06:40:01;99755.34;;;10.86;86.58
64200;BME280;50516;52.272;5.136;2022-09-27T06:42:27;99752.13;;;10.98;85.95
64200;BME280;50516;52.272;5.136;2022-09-27T06:44:53;99756.78;;;10.98;86.06
64200;BME280;50516;52.272;5.136;2022-09-27T06:47:19;99739.72;;;11.01;86.54
64200;BME280;50516;52.272;5.136;2022-09-27T06:49:44;99745.09;;;11.06;86.20
64200;BME280;50516;52.272;5.136;2022-09-27T06:52:10;99748.09;;;11.09;86.28
64200;BME280;50516;52.272;5.136;2022-09-27T06:54:35;99741.59;;;11.19;86.45
64200;BME280;50516;52.272;5.136;2022-09-27T06:57:00;99744.03;;;11.21;85.92
64200;BME280;50516;52.272;5.136;2022-09-27T06:59:26;99749.09;;;11.13;86.24
64200;BME280;50516;52.272;5.136;2022-09-27T07:02:10;99757.84;;;11.15;86.61
64200;BME280;50516;52.272;5.136;2022-09-27T07:04:36;99757.34;;;11.13;86.94
64200;BME280;50516;52.272;5.136;2022-09-27T07:07:01;99763.22;;;11.07;87.09
64200;BME280;50516;52.272;5.136;2022-09-27T07:09:26;99753.66;;;11.04;87.08
64200;BME280;50516;52.272;5.136;2022-09-27T07:11:52;99761.72;;;11.14;87.15
64200;BME280;50516;52.272;5.136;2022-09-27T07:14:19;99750.31;;;11.35;86.24
64200;BME280;50516;52.272;5.136;2022-09-27T07:16:44;99753.81;;;11.55;85.56
64200;BME280;50516;52.272;5.136;2022-09-27T07:19:10;99749.75;;;11.66;85.50
64200;BME280;50516;52.272;5.136;2022-09-27T07:21:37;99757.28;;;11.74;85.41
64200;BME280;50516;52.272;5.136;2022-09-27T07:24:02;99755.03;;;11.76;85.44
64200;BME280;50516;52.272;5.136;2022-09-27T07:26:28;99757.66;;;11.81;85.52
64200;BME280;50516;52.272;5.136;2022-09-27T07:28:53;99754.59;;;11.83;85.77
64200;BME280;50516;52.272;5.136;2022-09-27T07:31:20;99764.28;;;11.80;85.63
64200;BME280;50516;52.272;5.136;2022-09-27T07:33:46;99765.31;;;11.84;86.16
64200;BME280;50516;52.272;5.136;2022-09-27T07:36:12;99767.94;;;11.90;85.99
64200;BME280;50516;52.272;5.136;2022-09-27T07:38:37;99776.09;;;11.95;85.75
64200;BME280;50516;52.272;5.136;2022-09-27T07:41:11;99770.38;;;11.91;85.63
64200;BME280;50516;52.272;5.136;2022-09-27T07:43:38;99765.72;;;11.92;85.84
64200;BME280;50516;52.272;5.136;2022-09-27T07:46:03;99773.13;;;11.91;85.56
64200;BME280;50516;52.272;5.136;2022-09-27T07:48:29;99777.03;;;11.90;85.61
64200;BME280;50516;52.272;5.136;2022-09-27T07:50:54;99779.28;;;12.02;85.06
64200;BME280;50516;52.272;5.136;2022-09-27T07:53:19;99770.72;;;12.03;85.15
64200;BME280;50516;52.272;5.136;2022-09-27T07:55:49;99772.50;;;12.22;84.73
64200;BME280;50516;52.272;5.136;2022-09-27T07:58:16;99772.53;;;12.45;84.04
64200;BME280;50516;52.272;5.136;2022-09-27T08:00:42;99777.38;;;12.62;83.07
64200;BME280;50516;52.272;5.136;2022-09-27T08:03:13;99780.66;;;12.50;82.89
64200;BME280;50516;52.272;5.136;2022-09-27T08:05:43;99784.47;;;12.40;84.76
64200;BME280;50516;52.272;5.136;2022-09-27T08:08:09;99795.34;;;12.22;85.53
64200;BME280;50516;52.272;5.136;2022-09-27T08:10:35;99825.75;;;12.03;86.75
64200;BME280;50516;52.272;5.136;2022-09-27T08:13:01;99810.41;;;11.83;87.89
64200;BME280;50516;52.272;5.136;2022-09-27T08:15:28;99824.38;;;11.73;87.23
64200;BME280;50516;52.272;5.136;2022-09-27T08:17:53;99817.78;;;11.74;86.87
64200;BME280;50516;52.272;5.136;2022-09-27T08:20:19;99814.72;;;11.76;85.80
64200;BME280;50516;52.272;5.136;2022-09-27T08:22:44;99817.66;;;11.79;86.05
64200;BME280;50516;52.272;5.136;2022-09-27T08:25:10;99812.47;;;11.92;84.66
64200;BME280;50516;52.272;5.136;2022-09-27T08:27:36;99810.16;;;11.99;84.76
64200;BME280;50516;52.272;5.136;2022-09-27T08:30:02;99808.72;;;12.01;84.18
64200;BME280;50516;52.272;5.136;2022-09-27T08:32:28;99808.00;;;11.96;83.96
64200;BME280;50516;52.272;5.136;2022-09-27T08:34:55;99810.25;;;11.94;84.29
64200;BME280;50516;52.272;5.136;2022-09-27T08:37:20;99806.28;;;12.00;84.78
64200;BME280;50516;52.272;5.136;2022-09-27T08:39:46;99816.56;;;12.08;84.70
64200;BME280;50516;52.272;5.136;2022-09-27T08:47:20;99816.75;;;12.12;84.53
64200;BME280;50516;52.272;5.136;2022-09-27T08:50:28;99825.94;;;12.21;85.45
64200;BME280;50516;52.272;5.136;2022-09-27T08:52:58;99821.03;;;12.18;85.02
64200;BME280;50516;52.272;5.136;2022-09-27T08:55:44;99827.97;;;12.15;85.60
64200;BME280;50516;52.272;5.136;2022-09-27T08:58:18;99826.66;;;12.13;84.75
64200;BME280;50516;52.272;5.136;2022-09-27T09:00:48;99820.50;;;12.16;85.48
64200;BME280;50516;52.272;5.136;2022-09-27T09:03:18;99818.47;;;12.21;85.96
64200;BME280;50516;52.272;5.136;2022-09-27T09:06:19;99817.13;;;12.33;84.38
64200;BME280;50516;52.272;5.136;2022-09-27T09:11:46;99833.53;;;12.38;84.36
64200;BME280;50516;52.272;5.136;2022-09-27T09:23:16;99836.91;;;12.35;84.16
64200;BME280;50516;52.272;5.136;2022-09-27T09:33:33;99847.84;;;12.26;84.53
64200;BME280;50516;52.272;5.136;2022-09-27T09:36:29;99852.84;;;12.24;84.42
64200;BME280;50516;52.272;5.136;2022-09-27T09:39:11;99852.63;;;12.20;83.56
64200;BME280;50516;52.272;5.136;2022-09-27T09:41:45;99857.50;;;12.23;84.54
64200;BME280;50516;52.272;5.136;2022-09-27T09:46:44;99857.41;;;12.15;84.95
64200;BME280;50516;52.272;5.136;2022-09-27T09:49:35;99858.13;;;12.20;84.77
64200;BME280;50516;52.272;5.136;2022-09-27T09:52:08;99854.66;;;12.15;84.88
64200;BME280;50516;52.272;5.136;2022-09-27T09:54:55;99846.31;;;12.06;85.64
64200;BME280;50516;52.272;5.136;2022-09-27T09:57:32;99845.31;;;12.02;86.00
64200;BME280;50516;52.272;5.136;2022-09-27T10:00:04;99843.25;;;12.08;85.26
64200;BME280;50516;52.272;5.136;2022-09-27T10:02:37;99841.94;;;12.05;84.08
64200;BME280;50516;52.272;5.136;2022-09-27T10:05:04;99837.25;;;11.92;84.48
64200;BME280;50516;52.272;5.136;2022-09-27T10:07:31;99837.91;;;11.83;85.10
64200;BME280;50516;52.272;5.136;2022-09-27T10:10:00;99829.78;;;11.78;84.92
64200;BME280;50516;52.272;5.136;2022-09-27T10:12:26;99828.97;;;11.92;84.90
64200;BME280;50516;52.272;5.136;2022-09-27T10:14:53;99830.41;;;11.89;84.88
64200;BME280;50516;52.272;5.136;2022-09-27T10:17:24;99825.13;;;12.07;84.04
64200;BME280;50516;52.272;5.136;2022-09-27T10:19:51;99821.84;;;12.18;83.75
64200;BME280;50516;52.272;5.136;2022-09-27T10:22:28;99807.84;;;12.29;82.05
64200;BME280;50516;52.272;5.136;2022-09-27T10:25:01;99808.13;;;12.41;82.52
64200;BME280;50516;52.272;5.136;2022-09-27T10:27:36;99815.50;;;12.68;80.82
64200;BME280;50516;52.272;5.136;2022-09-27T10:30:03;99819.78;;;12.74;80.21
64200;BME280;50516;52.272;5.136;2022-09-27T10:32:33;99823.44;;;12.70;81.25
64200;BME280;50516;52.272;5.136;2022-09-27T10:38:11;99823.34;;;12.61;82.16
64200;BME280;50516;52.272;5.136;2022-09-27T10:40:48;99828.25;;;12.64;82.33
64200;BME280;50516;52.272;5.136;2022-09-27T10:43:31;99835.44;;;12.51;81.81
64200;BME280;50516;52.272;5.136;2022-09-27T10:51:33;99841.41;;;12.03;83.73
64200;BME280;50516;52.272;5.136;2022-09-27T10:53:59;99846.72;;;11.99;82.63
64200;BME280;50516;52.272;5.136;2022-09-27T10:56:30;99844.06;;;11.94;83.88
64200;BME280;50516;52.272;5.136;2022-09-27T10:58:57;99857.59;;;11.91;83.41
64200;BME280;50516;52.272;5.136;2022-09-27T11:01:24;99860.22;;;11.82;83.77
64200;BME280;50516;52.272;5.136;2022-09-27T11:03:54;99855.84;;;11.67;84.88
64200;BME280;50516;52.272;5.136;2022-09-27T11:08:51;99858.69;;;11.62;85.43
64200;BME280;50516;52.272;5.136;2022-09-27T11:11:23;99849.75;;;11.70;85.09
64200;BME280;50516;52.272;5.136;2022-09-27T11:16:38;99836.03;;;12.12;84.28
64200;BME280;50516;52.272;5.136;2022-09-27T11:19:22;99832.44;;;12.25;82.89
64200;BME280;50516;52.272;5.136;2022-09-27T11:24:45;99826.63;;;12.27;83.31
64200;BME280;50516;52.272;5.136;2022-09-27T11:27:23;99840.00;;;12.19;83.64
64200;BME280;50516;52.272;5.136;2022-09-27T11:45:54;99847.75;;;12.03;83.72
64200;BME280;50516;52.272;5.136;2022-09-27T12:10:10;99857.25;;;11.50;85.62
64200;BME280;50516;52.272;5.136;2022-09-27T12:12:39;99863.34;;;11.47;85.83
64200;BME280;50516;52.272;5.136;2022-09-27T12:15:12;99862.34;;;11.43;85.64
64200;BME280;50516;52.272;5.136;2022-09-27T12:17:43;99857.84;;;11.47;84.83
64200;BME280;50516;52.272;5.136;2022-09-27T12:20:20;99856.16;;;11.51;84.65
64200;BME280;50516;52.272;5.136;2022-09-27T12:23:02;99857.94;;;11.42;84.93
64200;BME280;50516;52.272;5.136;2022-09-27T12:25:30;99861.22;;;11.44;84.93
64200;BME280;50516;52.272;5.136;2022-09-27T12:28:04;99859.25;;;11.31;85.52
64200;BME280;50516;52.272;5.136;2022-09-27T12:30:34;99862.81;;;11.31;86.31
64200;BME280;50516;52.272;5.136;2022-09-27T12:35:59;99857.59;;;11.16;86.22
64200;BME280;50516;52.272;5.136;2022-09-27T12:38:38;99847.69;;;11.15;86.19
64200;BME280;50516;52.272;5.136;2022-09-27T12:41:09;99836.19;;;11.13;86.00
64200;BME280;50516;52.272;5.136;2022-09-27T12:43:40;99851.25;;;11.15;85.51
64200;BME280;50516;52.272;5.136;2022-09-27T12:49:16;99848.47;;;11.35;85.34
64200;BME280;50516;52.272;5.136;2022-09-27T12:51:55;99846.34;;;11.45;85.01
64200;BME280;50516;52.272;5.136;2022-09-27T12:59:26;99851.97;;;11.54;84.78
64200;BME280;50516;52.272;5.136;2022-09-27T13:12:53;99833.00;;;11.52;84.82
64200;BME280;50516;52.272;5.136;2022-09-27T13:15:30;99830.41;;;11.61;84.30
64200;BME280;50516;52.272;5.136;2022-09-27T13:17:58;99832.13;;;11.85;83.98
64200;BME280;50516;52.272;5.136;2022-09-27T13:22:58;99824.88;;;11.75;84.26
64200;BME280;50516;52.272;5.136;2022-09-27T13:25:47;99815.84;;;11.88;84.27
64200;BME280;50516;52.272;5.136;2022-09-27T13:28:56;99821.59;;;12.29;83.16
64200;BME280;50516;52.272;5.136;2022-09-27T13:40:23;99808.47;;;14.10;76.03
64200;BME280;50516;52.272;5.136;2022-09-27T13:45:50;99798.97;;;13.85;76.66
64200;BME280;50516;52.272;5.136;2022-09-27T13:50:51;99793.78;;;13.43;75.61
64200;BME280;50516;52.272;5.136;2022-09-27T13:53:33;99796.31;;;13.31;74.61
64200;BME280;50516;52.272;5.136;2022-09-27T13:56:01;99787.75;;;13.32;76.21
64200;BME280;50516;52.272;5.136;2022-09-27T14:01:26;99776.34;;;13.03;75.96
64200;BME280;50516;52.272;5.136;2022-09-27T14:04:01;99772.78;;;13.02;77.69
64200;BME280;50516;52.272;5.136;2022-09-27T14:06:31;99762.53;;;12.94;76.44
64200;BME280;50516;52.272;5.136;2022-09-27T14:09:06;99767.72;;;12.95;76.57
64200;BME280;50516;52.272;5.136;2022-09-27T14:11:42;99768.66;;;12.91;77.46
64200;BME280;50516;52.272;5.136;2022-09-27T14:14:17;99767.22;;;12.93;77.90
64200;BME280;50516;52.272;5.136;2022-09-27T14:16:44;99773.25;;;12.73;78.69
64200;BME280;50516;52.272;5.136;2022-09-27T14:19:18;99771.66;;;12.35;80.26
64200;BME280;50516;52.272;5.136;2022-09-27T14:21:44;99777.53;;;12.06;82.57
64200;BME280;50516;52.272;5.136;2022-09-27T14:24:24;99785.19;;;11.95;83.62
64200;BME280;50516;52.272;5.136;2022-09-27T14:27:18;99784.38;;;11.95;84.19
64200;BME280;50516;52.272;5.136;2022-09-27T14:29:56;99760.91;;;11.83;84.63
64200;BME280;50516;52.272;5.136;2022-09-27T14:32:24;99754.81;;;11.86;83.33
64200;BME280;50516;52.272;5.136;2022-09-27T14:37:28;99758.88;;;11.89;82.63
64200;BME280;50516;52.272;5.136;2022-09-27T14:40:05;99757.06;;;11.84;81.22
64200;BME280;50516;52.272;5.136;2022-09-27T14:42:36;99742.38;;;12.03;81.35
64200;BME280;50516;52.272;5.136;2022-09-27T14:45:28;99745.69;;;12.28;80.27
64200;BME280;50516;52.272;5.136;2022-09-27T14:47:58;99745.94;;;12.40;79.25
64200;BME280;50516;52.272;5.136;2022-09-27T14:50:27;99740.97;;;12.42;79.87
64200;BME280;50516;52.272;5.136;2022-09-27T14:52:54;99745.75;;;12.59;79.79
64200;BME280;50516;52.272;5.136;2022-09-27T14:55:24;99741.94;;;12.69;79.22
64200;BME280;50516;52.272;5.136;2022-09-27T14:57:59;99738.56;;;12.72;78.77
64200;BME280;50516;52.272;5.136;2022-09-27T15:00:29;99736.53;;;12.55;79.75
64200;BME280;50516;52.272;5.136;2022-09-27T15:02:58;99741.63;;;12.48;80.16
64200;BME280;50516;52.272;5.136;2022-09-27T15:05:27;99739.94;;;12.60;80.01
64200;BME280;50516;52.272;5.136;2022-09-27T15:07:55;99740.34;;;12.45;79.57
64200;BME280;50516;52.272;5.136;2022-09-27T15:10:25;99744.69;;;12.46;80.36
64200;BME280;50516;52.272;5.136;2022-09-27T15:12:53;99736.56;;;12.41;79.97
64200;BME280;50516;52.272;5.136;2022-09-27T15:15:25;99736.19;;;12.34;80.38
64200;BME280;50516;52.272;5.136;2022-09-27T15:17:52;99736.28;;;12.29;79.68
64200;BME280;50516;52.272;5.136;2022-09-27T15:20:32;99734.56;;;12.33;80.11
64200;BME280;50516;52.272;5.136;2022-09-27T15:23:00;99722.31;;;12.39;79.42
64200;BME280;50516;52.272;5.136;2022-09-27T15:25:37;99719.16;;;12.32;80.35
64200;BME280;50516;52.272;5.136;2022-09-27T15:28:17;99714.97;;;12.34;80.25
64200;BME280;50516;52.272;5.136;2022-09-27T15:30:55;99709.34;;;12.39;79.98
64200;BME280;50516;52.272;5.136;2022-09-27T15:33:24;99717.53;;;12.31;80.39
64200;BME280;50516;52.272;5.136;2022-09-27T15:35:53;99713.97;;;12.30;79.98
64200;BME280;50516;52.272;5.136;2022-09-27T15:38:28;99711.16;;;12.21;80.87
64200;BME280;50516;52.272;5.136;2022-09-27T15:41:14;99710.66;;;12.19;80.85
64200;BME280;50516;52.272;5.136;2022-09-27T15:43:47;99711.28;;;12.16;80.71
64200;BME280;50516;52.272;5.136;2022-09-27T15:51:54;99712.19;;;12.12;81.52
64200;BME280;50516;52.272;5.136;2022-09-27T15:54:21;99702.00;;;12.12;81.64
64200;BME280;50516;52.272;5.136;2022-09-27T15:56:48;99701.81;;;12.09;82.28
64200;BME280;50516;52.272;5.136;2022-09-27T15:59:25;99697.22;;;12.18;81.89
64200;BME280;50516;52.272;5.136;2022-09-27T16:01:55;99705.91;;;12.11;82.55
64200;BME280;50516;52.272;5.136;2022-09-27T16:04:20;99700.75;;;12.18;82.81
64200;BME280;50516;52.272;5.136;2022-09-27T16:06:46;99700.16;;;12.21;82.60
64200;BME280;50516;52.272;5.136;2022-09-27T16:09:16;99690.78;;;12.22;82.90
64200;BME280;50516;52.272;5.136;2022-09-27T16:11:46;99693.00;;;12.20;83.07
64200;BME280;50516;52.272;5.136;2022-09-27T16:14:12;99696.81;;;12.11;83.48
64200;BME280;50516;52.272;5.136;2022-09-27T16:16:42;99695.84;;;11.93;84.26